Isle of Canna, United Kingdom
Current Conditions -  °F | °C
As of 5:50 PM on Thursday 23 Oct 2014 (Local Time) from EGPU Reporting Station
Scattered Clouds Scattered Clouds  
Wind Chill: 12°   Ceiling: Unl
Heat Index: 12°   Visibility: 6mi
Dew Point:   Wind: 23mph
Humidity: 82%   Direction: 240°WSW
Pressure: 29.59"   Gusts: NA
Location:  57.06°N, 6.5°W
Report Text: EGPU 231650Z AUTO 24020KT 220V280 9999 FEW018/// SCT022/// 12/09 Q1002
Loading
Personal Weather Stations






























Interactive Weather Map
Tropical Storm Tracking
New forecast layout! Learn more

10-Day Weather Forecast

Advertisements
Track Severe Weather on mobile